Time;durP1;ratioP1;P1;durP2;ratioP2;P2;SDS_P1;SDS_P2;PMS_P1;PMS_P2;Temp;Humidity;BMP_temperature;BMP_pressure;BME280_temperature;BME280_humidity;BME280_pressure;Samples;Min_cycle;Max_cycle;Signal;HPM_P1;HPM_P2
2022/06/30 00:00:01;;;;;;;9.15;8.35;;;;;;;;;;5091416;28;20304;-78
2022/06/30 00:02:35;;;;;;;8.80;8.10;;;;;;;;;;5086856;28;20221;-79
2022/06/30 00:05:02;;;;;;;8.80;8.00;;;;;;;;;;5089152;28;20201;-77
2022/06/30 00:07:30;;;;;;;8.63;7.63;;;;;;;;;;5087675;28;20205;-78
2022/06/30 00:09:57;;;;;;;9.00;8.05;;;;;;;;;;5085524;28;20686;-79
2022/06/30 00:12:25;;;;;;;9.48;8.20;;;;;;;;;;5088224;28;20229;-77
2022/06/30 00:14:52;;;;;;;8.68;7.97;;;;;;;;;;5085582;28;20197;-79
2022/06/30 00:17:19;;;;;;;8.38;7.57;;;;;;;;;;5085578;28;20240;-78
2022/06/30 00:19:47;;;;;;;8.90;7.80;;;;;;;;;;5086766;28;20243;-76
2022/06/30 00:22:14;;;;;;;8.32;7.53;;;;;;;;;;5085832;28;20220;-77
2022/06/30 00:24:41;;;;;;;8.75;7.90;;;;;;;;;;5091611;28;20250;-77
2022/06/30 00:27:08;;;;;;;9.15;8.32;;;;;;;;;;5088037;28;20273;-75
2022/06/30 00:29:36;;;;;;;7.85;7.15;;;;;;;;;;5092752;28;20208;-77
2022/06/30 00:32:03;;;;;;;8.65;7.78;;;;;;;;;;5072162;28;20221;-77
2022/06/30 00:34:31;;;;;;;8.60;7.75;;;;;;;;;;5092416;28;20204;-77
2022/06/30 00:36:58;;;;;;;7.93;6.88;;;;;;;;;;5087546;28;20281;-77
2022/06/30 00:39:25;;;;;;;8.00;7.40;;;;;;;;;;5084941;28;20258;-80
2022/06/30 00:41:52;;;;;;;8.18;7.47;;;;;;;;;;5091301;28;20221;-76
2022/06/30 00:44:19;;;;;;;8.35;7.50;;;;;;;;;;5092667;28;20212;-80
2022/06/30 00:46:48;;;;;;;7.43;6.78;;;;;;;;;;5089705;28;20308;-77
2022/06/30 00:49:16;;;;;;;7.85;7.07;;;;;;;;;;5094182;28;20258;-77
2022/06/30 00:51:44;;;;;;;7.10;6.50;;;;;;;;;;5087934;28;20311;-77
2022/06/30 00:54:12;;;;;;;7.18;6.50;;;;;;;;;;5087805;28;20208;-77
2022/06/30 00:56:43;;;;;;;7.57;6.97;;;;;;;;;;5090442;28;20250;-78
2022/06/30 00:59:13;;;;;;;7.53;6.80;;;;;;;;;;5083113;28;20258;-78
2022/06/30 01:01:42;;;;;;;7.72;7.03;;;;;;;;;;5090477;28;20256;-78
2022/06/30 01:04:10;;;;;;;7.80;7.20;;;;;;;;;;5068058;28;20279;-77
2022/06/30 01:06:37;;;;;;;9.23;8.10;;;;;;;;;;5094816;28;20254;-78
2022/06/30 01:09:04;;;;;;;9.20;8.40;;;;;;;;;;5090271;28;20204;-77
2022/06/30 01:14:19;;;;;;;7.95;7.25;;;;;;;;;;5089068;28;20251;-77
2022/06/30 01:16:47;;;;;;;9.15;8.20;;;;;;;;;;5091598;28;20686;-78
2022/06/30 01:19:15;;;;;;;9.35;8.45;;;;;;;;;;5073291;28;20193;-77
2022/06/30 01:22:03;;;;;;;10.57;8.65;;;;;;;;;;5090850;28;20224;-78
2022/06/30 01:24:30;;;;;;;8.52;7.70;;;;;;;;;;5090786;28;20282;-77
2022/06/30 01:26:58;;;;;;;10.80;9.57;;;;;;;;;;5087328;28;20205;-76
2022/06/30 01:29:25;;;;;;;11.73;9.85;;;;;;;;;;5085180;28;20201;-77
2022/06/30 01:31:52;;;;;;;10.55;9.52;;;;;;;;;;5090898;28;20264;-77
2022/06/30 01:34:20;;;;;;;11.32;9.70;;;;;;;;;;5086365;28;20227;-77
2022/06/30 01:36:48;;;;;;;11.57;10.30;;;;;;;;;;5084633;28;20206;-78
2022/06/30 01:39:15;;;;;;;11.02;9.73;;;;;;;;;;5088867;28;20731;-77
2022/06/30 01:41:42;;;;;;;11.30;9.93;;;;;;;;;;5071555;28;20908;-79
2022/06/30 01:44:11;;;;;;;10.80;9.82;;;;;;;;;;5086419;28;20266;-77
2022/06/30 01:46:45;;;;;;;10.85;9.98;;;;;;;;;;5090129;28;20217;-78
2022/06/30 01:49:13;;;;;;;10.48;9.40;;;;;;;;;;5071951;28;20199;-77
2022/06/30 01:51:40;;;;;;;10.75;9.40;;;;;;;;;;5090945;28;20303;-78
2022/06/30 01:54:10;;;;;;;8.82;8.02;;;;;;;;;;5089506;28;20209;-77
2022/06/30 01:56:38;;;;;;;7.97;7.25;;;;;;;;;;5088990;28;20276;-77
2022/06/30 01:59:06;;;;;;;7.80;7.10;;;;;;;;;;5085740;28;20243;-75
2022/06/30 02:01:33;;;;;;;7.95;7.15;;;;;;;;;;5085267;28;20279;-76
2022/06/30 02:04:46;;;;;;;12.48;7.47;;;;;;;;;;5088295;28;20600;-76
2022/06/30 02:06:49;;;;;;;7.75;7.05;;;;;;;;;;5089143;28;20201;-76
2022/06/30 02:09:16;;;;;;;8.50;7.78;;;;;;;;;;5094922;28;20213;-78
2022/06/30 02:11:44;;;;;;;8.85;8.02;;;;;;;;;;5088700;28;20231;-77
2022/06/30 02:14:11;;;;;;;10.10;9.23;;;;;;;;;;5074424;28;20229;-77
2022/06/30 02:16:38;;;;;;;10.57;9.57;;;;;;;;;;5092830;28;20232;-76
2022/06/30 02:19:05;;;;;;;9.98;9.02;;;;;;;;;;5088577;28;20242;-75
2022/06/30 02:21:33;;;;;;;12.25;10.57;;;;;;;;;;5095330;28;20224;-77
2022/06/30 02:24:00;;;;;;;11.15;10.05;;;;;;;;;;5085968;28;20708;-78
2022/06/30 02:26:27;;;;;;;10.95;9.93;;;;;;;;;;5083160;28;20208;-77
2022/06/30 02:28:54;;;;;;;11.85;10.77;;;;;;;;;;5092434;28;20228;-78
2022/06/30 02:31:22;;;;;;;10.05;9.02;;;;;;;;;;5092801;28;20252;-77
2022/06/30 02:33:49;;;;;;;9.35;8.45;;;;;;;;;;5078079;28;20668;-75
2022/06/30 02:36:16;;;;;;;9.45;8.65;;;;;;;;;;5091337;28;20247;-77
2022/06/30 02:38:43;;;;;;;10.05;9.02;;;;;;;;;;5084491;28;20236;-78
2022/06/30 02:41:11;;;;;;;9.93;9.07;;;;;;;;;;5092942;28;20228;-77
2022/06/30 02:43:44;;;;;;;9.52;8.68;;;;;;;;;;5085712;28;20629;-77
2022/06/30 02:46:11;;;;;;;10.10;9.00;;;;;;;;;;5093099;28;20246;-77
2022/06/30 02:48:38;;;;;;;10.32;9.35;;;;;;;;;;5094725;28;20215;-77
2022/06/30 02:51:06;;;;;;;9.88;8.98;;;;;;;;;;5094171;28;20225;-77
2022/06/30 02:53:33;;;;;;;9.32;8.50;;;;;;;;;;5085324;28;20246;-78
2022/06/30 02:56:00;;;;;;;7.53;6.93;;;;;;;;;;5088161;28;20239;-76
2022/06/30 02:58:28;;;;;;;7.38;6.68;;;;;;;;;;5094315;28;20295;-77
2022/06/30 03:00:55;;;;;;;7.65;6.88;;;;;;;;;;5083954;28;20636;-76
2022/06/30 03:03:22;;;;;;;7.97;7.25;;;;;;;;;;5093451;28;20287;-77
2022/06/30 03:05:50;;;;;;;7.80;7.00;;;;;;;;;;5095405;28;20232;-77
2022/06/30 03:08:17;;;;;;;7.65;7.05;;;;;;;;;;5097162;28;20229;-79
2022/06/30 03:10:44;;;;;;;8.27;7.47;;;;;;;;;;5094427;28;20311;-76
2022/06/30 03:13:11;;;;;;;8.27;7.57;;;;;;;;;;5102268;28;20263;-78
2022/06/30 03:15:38;;;;;;;9.55;8.73;;;;;;;;;;5087653;28;20229;-76
2022/06/30 03:18:05;;;;;;;9.57;8.70;;;;;;;;;;5086394;28;20665;-77
2022/06/30 03:20:38;;;;;;;13.10;11.90;;;;;;;;;;5088180;28;20280;-77
2022/06/30 03:23:06;;;;;;;12.88;11.65;;;;;;;;;;5075330;28;20252;-77
2022/06/30 03:25:33;;;;;;;12.65;11.52;;;;;;;;;;5099460;28;20232;-77
2022/06/30 03:28:02;;;;;;;13.57;11.60;;;;;;;;;;5096121;28;20259;-78
2022/06/30 03:30:29;;;;;;;13.00;11.65;;;;;;;;;;5097412;28;20624;-77
2022/06/30 03:32:56;;;;;;;13.00;11.77;;;;;;;;;;5086625;28;20425;-76
2022/06/30 03:35:23;;;;;;;12.35;11.25;;;;;;;;;;5086988;28;20233;-78
2022/06/30 03:37:51;;;;;;;12.60;11.40;;;;;;;;;;5094362;28;20239;-80
2022/06/30 03:40:18;;;;;;;12.88;11.77;;;;;;;;;;5069597;28;20229;-79
2022/06/30 03:42:45;;;;;;;12.43;11.15;;;;;;;;;;5090073;28;20286;-74
2022/06/30 03:45:12;;;;;;;12.35;11.15;;;;;;;;;;5084805;28;20220;-77
2022/06/30 03:47:39;;;;;;;11.23;10.20;;;;;;;;;;5091791;28;20198;-78
2022/06/30 03:50:08;;;;;;;12.07;10.25;;;;;;;;;;5086433;28;20284;-75
2022/06/30 03:52:36;;;;;;;9.60;8.80;;;;;;;;;;5090236;28;20262;-78
2022/06/30 03:55:03;;;;;;;10.23;9.43;;;;;;;;;;5090170;28;20250;-77
2022/06/30 03:57:31;;;;;;;11.30;10.40;;;;;;;;;;5089292;28;20310;-76
2022/06/30 03:59:58;;;;;;;10.63;9.68;;;;;;;;;;5088696;28;20289;-78
2022/06/30 04:02:25;;;;;;;11.20;10.15;;;;;;;;;;5088880;28;20256;-77
2022/06/30 04:04:52;;;;;;;10.55;9.60;;;;;;;;;;5085104;28;20201;-78
2022/06/30 04:07:20;;;;;;;11.45;10.35;;;;;;;;;;5077984;28;20197;-79
2022/06/30 04:09:47;;;;;;;10.30;9.25;;;;;;;;;;5088837;28;20252;-77
2022/06/30 04:12:14;;;;;;;9.93;9.13;;;;;;;;;;5088772;28;20221;-80
2022/06/30 04:14:42;;;;;;;10.10;8.40;;;;;;;;;;5088142;28;20240;-76
2022/06/30 04:17:09;;;;;;;10.40;9.23;;;;;;;;;;5088210;28;20205;-77
2022/06/30 04:19:37;;;;;;;11.30;10.30;;;;;;;;;;5115909;27;20285;-76
2022/06/30 04:22:05;;;;;;;12.88;11.60;;;;;;;;;;5092805;28;20311;-78
2022/06/30 04:24:32;;;;;;;12.70;11.52;;;;;;;;;;5092413;28;20300;-78
2022/06/30 04:26:59;;;;;;;12.25;10.98;;;;;;;;;;5090623;28;20239;-78
2022/06/30 04:29:27;;;;;;;12.30;11.23;;;;;;;;;;5087459;28;20296;-77
2022/06/30 04:34:39;;;;;;;9.95;9.13;;;;;;;;;;5088211;28;20197;-78
2022/06/30 04:37:07;;;;;;;10.43;9.40;;;;;;;;;;5089521;28;20225;-78
2022/06/30 04:39:34;;;;;;;11.18;9.98;;;;;;;;;;5085179;28;20235;-77
2022/06/30 04:42:01;;;;;;;11.32;9.73;;;;;;;;;;5077811;28;23115;-77
2022/06/30 04:44:28;;;;;;;10.48;9.45;;;;;;;;;;5069869;28;20652;-76
2022/06/30 04:46:55;;;;;;;9.10;7.90;;;;;;;;;;5081183;28;20235;-76
2022/06/30 04:49:23;;;;;;;9.63;8.93;;;;;;;;;;5085552;28;21122;-76
2022/06/30 04:51:51;;;;;;;10.52;9.52;;;;;;;;;;5080922;28;20251;-77
2022/06/30 04:54:18;;;;;;;10.10;9.20;;;;;;;;;;5076489;28;20206;-78
2022/06/30 04:56:46;;;;;;;10.70;9.60;;;;;;;;;;5078832;28;20884;-77
2022/06/30 04:59:13;;;;;;;11.68;10.05;;;;;;;;;;5058083;28;20286;-77
2022/06/30 05:01:40;;;;;;;10.23;9.23;;;;;;;;;;5079461;28;20742;-77
2022/06/30 05:04:08;;;;;;;11.25;9.45;;;;;;;;;;5082372;28;20205;-77
2022/06/30 05:06:35;;;;;;;10.80;9.75;;;;;;;;;;5084019;28;20235;-77
2022/06/30 05:09:02;;;;;;;14.43;10.63;;;;;;;;;;5073076;28;20244;-78
2022/06/30 05:11:29;;;;;;;16.08;10.93;;;;;;;;;;5079888;28;20320;-78
2022/06/30 05:13:56;;;;;;;19.02;13.23;;;;;;;;;;5075691;28;20229;-78
2022/06/30 05:16:24;;;;;;;14.32;12.35;;;;;;;;;;5095094;28;20199;-78
2022/06/30 05:18:51;;;;;;;14.05;11.23;;;;;;;;;;5090792;28;20208;-79
2022/06/30 05:21:18;;;;;;;12.18;10.88;;;;;;;;;;5091607;28;20244;-78
2022/06/30 05:26:28;;;;;;;11.43;10.18;;;;;;;;;;5089737;28;20201;-77
2022/06/30 05:26:33;;;;;;;9.93;9.02;;;;;;;;;;5093664;28;20699;-77
2022/06/30 05:29:01;;;;;;;8.98;8.10;;;;;;;;;;5074351;28;20237;-76
2022/06/30 05:31:31;;;;;;;6.75;6.20;;;;;;;;;;5080623;28;20316;-78
2022/06/30 05:33:58;;;;;;;5.78;5.07;;;;;;;;;;5082152;28;20255;-77
2022/06/30 05:36:25;;;;;;;5.32;3.97;;;;;;;;;;5068499;28;20048;-77
2022/06/30 05:38:53;;;;;;;4.00;3.70;;;;;;;;;;5081880;28;20323;-77
2022/06/30 05:41:20;;;;;;;4.10;3.70;;;;;;;;;;5073704;28;20275;-79
2022/06/30 05:43:47;;;;;;;4.45;4.03;;;;;;;;;;5078124;28;20841;-77
2022/06/30 05:46:15;;;;;;;3.75;3.42;;;;;;;;;;5084362;28;20189;-77
2022/06/30 05:48:42;;;;;;;4.50;3.75;;;;;;;;;;5087909;28;20892;-78
2022/06/30 05:51:12;;;;;;;;;;;;;;;;;;5084542;28;20052;-77
2022/06/30 05:53:39;;;;;;;;;;;;;;;;;;5083202;28;20023;-77
2022/06/30 05:56:07;;;;;;;;;;;;;;;;;;5082849;28;21726;-76
2022/06/30 05:58:34;;;;;;;;;;;;;;;;;;5077721;28;19963;-77
2022/06/30 06:01:01;;;;;;;5.15;4.10;;;;;;;;;;5078631;28;19956;-79
2022/06/30 06:03:28;;;;;;;4.47;4.07;;;;;;;;;;5080074;28;20200;-78
2022/06/30 06:05:55;;;;;;;4.45;4.03;;;;;;;;;;5079909;28;20600;-79
2022/06/30 06:08:23;;;;;;;7.03;3.88;;;;;;;;;;5079099;28;20228;-76
2022/06/30 06:10:50;;;;;;;4.50;3.70;;;;;;;;;;5086425;28;20651;-78
2022/06/30 06:13:17;;;;;;;4.90;4.00;;;;;;;;;;5065783;28;20228;-77
2022/06/30 06:15:45;;;;;;;4.63;4.10;;;;;;;;;;5080590;28;20200;-77
2022/06/30 06:18:12;;;;;;;5.20;4.70;;;;;;;;;;5087759;28;20207;-77
2022/06/30 06:20:41;;;;;;;8.50;5.35;;;;;;;;;;5088934;28;20231;-77
2022/06/30 06:23:28;;;;;;;5.30;4.80;;;;;;;;;;5087297;28;20048;-76
2022/06/30 06:25:55;;;;;;;6.28;5.43;;;;;;;;;;5092981;28;20284;-77
2022/06/30 06:31:09;;;;;;;6.70;5.97;;;;;;;;;;5094584;28;20228;-77
2022/06/30 06:33:38;;;;;;;7.20;6.40;;;;;;;;;;5088143;28;20201;-77
2022/06/30 06:36:06;;;;;;;5.25;4.75;;;;;;;;;;5084710;28;20223;-76
2022/06/30 06:38:33;;;;;;;6.68;5.63;;;;;;;;;;5092797;28;20224;-76
2022/06/30 06:41:00;;;;;;;6.32;5.72;;;;;;;;;;5087767;28;20231;-78
2022/06/30 06:43:27;;;;;;;6.22;5.60;;;;;;;;;;5103988;27;20229;-76
2022/06/30 06:45:55;;;;;;;4.97;4.53;;;;;;;;;;5086432;28;20319;-77
2022/06/30 06:48:22;;;;;;;5.85;4.85;;;;;;;;;;5096319;28;20749;-76
2022/06/30 06:50:50;;;;;;;5.22;4.72;;;;;;;;;;5096502;28;20262;-77
2022/06/30 06:53:17;;;;;;;5.50;4.97;;;;;;;;;;5090404;28;20315;-76
2022/06/30 06:55:45;;;;;;;5.80;4.60;;;;;;;;;;5077027;28;20244;-77
2022/06/30 06:58:12;;;;;;;5.95;4.40;;;;;;;;;;5097266;28;20227;-78
2022/06/30 07:00:39;;;;;;;5.22;4.72;;;;;;;;;;5093987;28;20208;-80
2022/06/30 07:03:07;;;;;;;6.50;4.80;;;;;;;;;;5078787;28;20224;-79
2022/06/30 07:05:34;;;;;;;5.25;4.72;;;;;;;;;;5088535;28;20242;-77
2022/06/30 07:08:01;;;;;;;6.28;5.20;;;;;;;;;;5100611;28;20722;-79
2022/06/30 07:10:29;;;;;;;4.75;4.28;;;;;;;;;;5100877;28;20240;-78
2022/06/30 07:12:56;;;;;;;5.50;4.75;;;;;;;;;;5095912;28;20775;-77
2022/06/30 07:15:23;;;;;;;5.20;4.43;;;;;;;;;;5095093;28;20247;-76
2022/06/30 07:17:51;;;;;;;5.63;4.18;;;;;;;;;;5084699;28;20240;-75
2022/06/30 07:20:18;;;;;;;4.93;3.92;;;;;;;;;;5101857;27;20247;-77
2022/06/30 07:22:46;;;;;;;4.63;4.20;;;;;;;;;;5087180;28;20267;-76
2022/06/30 07:25:13;;;;;;;6.30;4.93;;;;;;;;;;5083742;28;20233;-78
2022/06/30 07:27:40;;;;;;;5.50;4.00;;;;;;;;;;5083417;28;20228;-76
2022/06/30 07:30:14;;;;;;;8.65;4.28;;;;;;;;;;5084958;28;20193;-77
2022/06/30 07:32:41;;;;;;;4.53;4.13;;;;;;;;;;5092282;27;20271;-77
2022/06/30 07:35:10;;;;;;;8.02;4.50;;;;;;;;;;5090222;28;20232;-77
2022/06/30 07:37:38;;;;;;;5.60;4.13;;;;;;;;;;5071051;28;20300;-77
2022/06/30 07:40:06;;;;;;;4.90;4.03;;;;;;;;;;5083057;28;20282;-77
2022/06/30 07:42:35;;;;;;;4.10;3.80;;;;;;;;;;5090348;28;20225;-77
2022/06/30 07:45:06;;;;;;;5.38;4.18;;;;;;;;;;5086754;28;20254;-75
2022/06/30 07:47:33;;;;;;;4.93;3.88;;;;;;;;;;5088868;28;20213;-75
2022/06/30 07:50:01;;;;;;;5.43;3.97;;;;;;;;;;5079755;28;20307;-78
2022/06/30 07:52:28;;;;;;;4.20;3.80;;;;;;;;;;5080456;28;20794;-77
2022/06/30 07:54:55;;;;;;;4.97;3.42;;;;;;;;;;5080493;28;20204;-76
2022/06/30 07:57:23;;;;;;;3.40;3.10;;;;;;;;;;5083769;28;20197;-76
2022/06/30 07:59:59;;;;;;;3.85;3.08;;;;;;;;;;5086459;28;20206;-78
2022/06/30 08:02:27;;;;;;;7.07;2.88;;;;;;;;;;5088116;28;20256;-79
2022/06/30 08:04:54;;;;;;;4.03;3.05;;;;;;;;;;5075279;28;20258;-77
2022/06/30 08:07:21;;;;;;;5.28;2.95;;;;;;;;;;5092231;28;20284;-78
2022/06/30 08:09:48;;;;;;;3.70;3.03;;;;;;;;;;5106313;28;20201;-76
2022/06/30 08:12:16;;;;;;;4.63;3.38;;;;;;;;;;5084649;28;20844;-78
2022/06/30 08:14:43;;;;;;;5.88;3.00;;;;;;;;;;5087706;28;20205;-76
2022/06/30 08:17:10;;;;;;;5.63;3.35;;;;;;;;;;5091260;28;20258;-76
2022/06/30 08:19:38;;;;;;;8.48;2.88;;;;;;;;;;5093869;28;20201;-78
2022/06/30 08:22:05;;;;;;;4.47;2.97;;;;;;;;;;5083558;28;20284;-75
2022/06/30 08:24:37;;;;;;;5.13;2.95;;;;;;;;;;5086574;28;20213;-77
2022/06/30 08:27:05;;;;;;;4.00;2.40;;;;;;;;;;5087179;28;20231;-78
2022/06/30 08:29:32;;;;;;;4.25;2.85;;;;;;;;;;5098616;28;20240;-78
2022/06/30 08:32:00;;;;;;;6.43;2.90;;;;;;;;;;5080036;28;20260;-79
2022/06/30 08:34:28;;;;;;;5.72;3.20;;;;;;;;;;5084309;28;20193;-77
2022/06/30 08:36:56;;;;;;;4.75;3.22;;;;;;;;;;5083155;28;20197;-77
2022/06/30 08:42:09;;;;;;;5.60;3.20;;;;;;;;;;5083869;28;20384;-79
2022/06/30 08:44:37;;;;;;;4.28;3.38;;;;;;;;;;5070662;28;20233;-78
2022/06/30 08:47:07;;;;;;;6.70;3.30;;;;;;;;;;5082914;28;20197;-76
2022/06/30 08:49:34;;;;;;;5.63;3.83;;;;;;;;;;5086441;28;20228;-77
2022/06/30 08:52:03;;;;;;;6.88;3.80;;;;;;;;;;5078692;28;20716;-78
2022/06/30 08:54:30;;;;;;;4.00;3.60;;;;;;;;;;5089893;28;20197;-78
2022/06/30 08:57:00;;;;;;;5.80;3.70;;;;;;;;;;5075226;28;20231;-78
2022/06/30 08:59:32;;;;;;;6.68;4.15;;;;;;;;;;5073937;28;20207;-78
2022/06/30 09:02:01;;;;;;;5.13;3.40;;;;;;;;;;5089653;28;20304;-76
2022/06/30 09:04:29;;;;;;;4.03;3.50;;;;;;;;;;5088495;28;20232;-76
2022/06/30 09:06:57;;;;;;;5.32;3.60;;;;;;;;;;5087288;28;20678;-76
2022/06/30 09:09:25;;;;;;;4.85;4.00;;;;;;;;;;5088574;28;20207;-77
2022/06/30 09:11:53;;;;;;;11.52;4.60;;;;;;;;;;5090419;28;20336;-77
2022/06/30 09:14:33;;;;;;;4.70;3.78;;;;;;;;;;5069001;28;20194;-77
2022/06/30 09:17:01;;;;;;;4.55;3.65;;;;;;;;;;5085076;28;20235;-78
2022/06/30 09:19:30;;;;;;;4.85;3.65;;;;;;;;;;5088319;28;20260;-78
2022/06/30 09:22:07;;;;;;;8.00;3.70;;;;;;;;;;5087317;28;20228;-76
2022/06/30 09:24:35;;;;;;;4.15;3.50;;;;;;;;;;5086194;28;20235;-77
2022/06/30 09:27:23;;;;;;;4.32;3.42;;;;;;;;;;5094007;28;20603;-77
2022/06/30 09:29:59;;;;;;;3.85;3.20;;;;;;;;;;5085693;28;20657;-78
2022/06/30 09:32:49;;;;;;;4.20;3.90;;;;;;;;;;5091528;28;20328;-78
2022/06/30 09:35:17;;;;;;;7.22;3.92;;;;;;;;;;5094495;28;20204;-76
2022/06/30 09:37:44;;;;;;;4.18;3.50;;;;;;;;;;5085072;28;20283;-76
2022/06/30 09:40:12;;;;;;;5.13;3.78;;;;;;;;;;5069662;28;20284;-77
2022/06/30 09:42:44;;;;;;;3.90;3.33;;;;;;;;;;5081159;28;20705;-76
2022/06/30 09:45:38;;;;;;;7.07;3.35;;;;;;;;;;5085262;28;20258;-77
2022/06/30 09:48:06;;;;;;;5.03;3.55;;;;;;;;;;5086820;28;20257;-75
2022/06/30 09:50:34;;;;;;;4.40;3.35;;;;;;;;;;5088624;28;20756;-76
2022/06/30 09:53:06;;;;;;;5.45;3.28;;;;;;;;;;5089051;28;20330;-76
2022/06/30 09:55:41;;;;;;;3.65;3.20;;;;;;;;;;5080301;28;20209;-78
2022/06/30 09:58:09;;;;;;;5.20;3.22;;;;;;;;;;5090220;28;20279;-76
2022/06/30 10:00:44;;;;;;;5.05;3.30;;;;;;;;;;5076891;28;20197;-75
2022/06/30 10:03:11;;;;;;;4.40;3.65;;;;;;;;;;5079492;28;20364;-76
2022/06/30 10:05:43;;;;;;;5.18;3.22;;;;;;;;;;5092598;27;20224;-74
2022/06/30 10:08:11;;;;;;;4.68;3.22;;;;;;;;;;5075667;28;20209;-77
2022/06/30 10:10:40;;;;;;;5.60;3.10;;;;;;;;;;5073478;28;20217;-75
2022/06/30 10:13:09;;;;;;;3.65;2.70;;;;;;;;;;5093412;28;20248;-76
2022/06/30 10:15:37;;;;;;;6.13;3.22;;;;;;;;;;5078463;28;20193;-76
2022/06/30 10:18:05;;;;;;;3.55;2.97;;;;;;;;;;5097885;28;20240;-76
2022/06/30 10:20:38;;;;;;;4.63;3.20;;;;;;;;;;5101971;28;20227;-77
2022/06/30 10:23:09;;;;;;;5.05;3.45;;;;;;;;;;5083965;28;20228;-78
2022/06/30 10:25:36;;;;;;;3.40;3.10;;;;;;;;;;5090046;28;20264;-78
2022/06/30 10:28:04;;;;;;;5.35;3.25;;;;;;;;;;5093145;28;20209;-78
2022/06/30 10:30:39;;;;;;;3.88;3.05;;;;;;;;;;5105904;28;20193;-79
2022/06/30 10:33:10;;;;;;;6.10;3.25;;;;;;;;;;5087950;28;20212;-76
2022/06/30 10:36:00;;;;;;;3.65;3.08;;;;;;;;;;5099411;28;20201;-76
2022/06/30 10:38:40;;;;;;;3.67;3.03;;;;;;;;;;5091243;28;20771;-75
2022/06/30 10:41:07;;;;;;;3.55;3.22;;;;;;;;;;5085686;28;20288;-75
2022/06/30 10:43:34;;;;;;;4.50;3.60;;;;;;;;;;5091098;28;20611;-77
2022/06/30 10:46:03;;;;;;;5.53;2.83;;;;;;;;;;5080991;28;20206;-77
2022/06/30 10:48:50;;;;;;;3.42;3.13;;;;;;;;;;5090261;28;20258;-75
2022/06/30 10:51:17;;;;;;;3.20;2.75;;;;;;;;;;5089531;28;20272;-76
2022/06/30 10:53:45;;;;;;;4.00;2.85;;;;;;;;;;5094300;28;20345;-77
2022/06/30 10:56:17;;;;;;;5.20;3.30;;;;;;;;;;5087438;28;20193;-76
2022/06/30 10:59:03;;;;;;;3.92;2.92;;;;;;;;;;5082913;28;20213;-75
2022/06/30 11:01:30;;;;;;;3.08;2.78;;;;;;;;;;5078786;28;20267;-76
2022/06/30 11:03:57;;;;;;;3.35;2.70;;;;;;;;;;5085355;28;20197;-77
2022/06/30 11:06:45;;;;;;;4.47;2.75;;;;;;;;;;5081572;28;20208;-77
2022/06/30 11:09:12;;;;;;;3.00;2.75;;;;;;;;;;5085847;28;20312;-77
2022/06/30 11:11:43;;;;;;;5.47;3.30;;;;;;;;;;5071677;28;20251;-78
2022/06/30 11:14:17;;;;;;;4.70;2.80;;;;;;;;;;5094263;28;20274;-76
2022/06/30 11:16:46;;;;;;;5.72;2.85;;;;;;;;;;5082453;28;20217;-76
2022/06/30 11:19:15;;;;;;;4.90;2.90;;;;;;;;;;5082755;28;20201;-77
2022/06/30 11:21:43;;;;;;;6.75;2.80;;;;;;;;;;5087015;28;20213;-77
2022/06/30 11:24:11;;;;;;;3.22;2.80;;;;;;;;;;5083687;28;20866;-77
2022/06/30 11:29:29;;;;;;;4.78;2.35;;;;;;;;;;5100983;28;20286;-75
2022/06/30 11:32:00;;;;;;;5.25;2.35;;;;;;;;;;5098180;28;20252;-76
2022/06/30 11:34:28;;;;;;;3.00;2.45;;;;;;;;;;5088152;28;20755;-76
2022/06/30 11:36:55;;;;;;;5.03;2.10;;;;;;;;;;5090569;28;20204;-76
2022/06/30 11:39:23;;;;;;;3.35;2.47;;;;;;;;;;5086158;28;20197;-76
2022/06/30 11:41:58;;;;;;;4.18;2.42;;;;;;;;;;5091845;28;20261;-76
2022/06/30 11:44:33;;;;;;;3.78;2.45;;;;;;;;;;5095490;28;20203;-78
2022/06/30 11:47:02;;;;;;;6.00;2.38;;;;;;;;;;5090567;28;20232;-77
2022/06/30 11:49:42;;;;;;;3.88;2.35;;;;;;;;;;5091511;28;20236;-78
2022/06/30 11:52:18;;;;;;;4.13;2.55;;;;;;;;;;5090363;28;20749;-76
2022/06/30 11:54:50;;;;;;;4.75;2.47;;;;;;;;;;5093281;28;20323;-78
2022/06/30 11:57:19;;;;;;;3.53;2.33;;;;;;;;;;5088166;28;20192;-77
2022/06/30 11:59:56;;;;;;;2.90;2.38;;;;;;;;;;5086602;28;20714;-79
2022/06/30 12:02:24;;;;;;;3.58;2.30;;;;;;;;;;5085769;28;20224;-77
2022/06/30 12:04:57;;;;;;;3.28;2.30;;;;;;;;;;5078024;28;20214;-78
2022/06/30 12:07:25;;;;;;;4.38;2.13;;;;;;;;;;5089914;28;20211;-77
2022/06/30 12:09:53;;;;;;;3.45;2.47;;;;;;;;;;5092823;28;20202;-76
2022/06/30 12:12:27;;;;;;;2.80;1.92;;;;;;;;;;5098800;28;20773;-78
2022/06/30 12:14:55;;;;;;;3.72;2.40;;;;;;;;;;5088190;28;20310;-77
2022/06/30 12:17:24;;;;;;;5.03;2.10;;;;;;;;;;5096504;28;20206;-75
2022/06/30 12:19:52;;;;;;;2.55;2.38;;;;;;;;;;5088832;28;20289;-78
2022/06/30 12:22:20;;;;;;;3.63;2.85;;;;;;;;;;5077694;28;20217;-77
2022/06/30 12:24:48;;;;;;;3.05;2.47;;;;;;;;;;5079842;28;20253;-76
2022/06/30 12:27:37;;;;;;;3.15;2.50;;;;;;;;;;5091974;28;20668;-77
2022/06/30 12:30:09;;;;;;;5.00;2.78;;;;;;;;;;5089188;28;20233;-76
2022/06/30 12:32:36;;;;;;;5.40;2.65;;;;;;;;;;5083980;28;20740;-79
2022/06/30 12:35:05;;;;;;;2.80;2.38;;;;;;;;;;5087320;28;20208;-78
2022/06/30 12:37:34;;;;;;;7.32;2.90;;;;;;;;;;5074679;28;20172;-76
2022/06/30 12:40:03;;;;;;;3.38;2.75;;;;;;;;;;5087822;28;20228;-77
2022/06/30 12:42:40;;;;;;;5.07;2.88;;;;;;;;;;5086702;28;20259;-77
2022/06/30 12:45:28;;;;;;;4.47;2.30;;;;;;;;;;5083424;28;20236;-76
2022/06/30 12:47:55;;;;;;;3.38;2.35;;;;;;;;;;5088488;28;20244;-74
2022/06/30 12:50:22;;;;;;;3.50;2.67;;;;;;;;;;5089547;28;20249;-76
2022/06/30 12:52:50;;;;;;;3.88;2.70;;;;;;;;;;5088974;28;20220;-77
2022/06/30 12:55:17;;;;;;;3.10;2.50;;;;;;;;;;5080877;28;20198;-76
2022/06/30 12:57:48;;;;;;;7.15;2.92;;;;;;;;;;5085215;28;20211;-77
2022/06/30 13:00:15;;;;;;;3.92;2.78;;;;;;;;;;5090549;28;20250;-77
2022/06/30 13:02:43;;;;;;;5.90;3.17;;;;;;;;;;5077872;28;20660;-76
2022/06/30 13:05:11;;;;;;;4.47;3.08;;;;;;;;;;5089764;28;20629;-77
2022/06/30 13:07:39;;;;;;;5.20;2.97;;;;;;;;;;5091225;28;20241;-77
2022/06/30 13:10:09;;;;;;;3.60;2.67;;;;;;;;;;5094884;28;20204;-76
2022/06/30 13:12:36;;;;;;;4.30;2.75;;;;;;;;;;5094158;28;20252;-76
2022/06/30 13:15:03;;;;;;;4.00;2.80;;;;;;;;;;5087572;28;20720;-77
2022/06/30 13:17:31;;;;;;;5.60;3.08;;;;;;;;;;5077939;28;20209;-80
2022/06/30 13:19:58;;;;;;;4.00;2.78;;;;;;;;;;5088266;28;20220;-75
2022/06/30 13:22:25;;;;;;;3.67;2.63;;;;;;;;;;5093807;28;20307;-78
2022/06/30 13:24:52;;;;;;;4.88;3.67;;;;;;;;;;5083577;28;20200;-76
2022/06/30 13:27:20;;;;;;;4.43;3.13;;;;;;;;;;5089114;28;20291;-77
2022/06/30 13:29:47;;;;;;;4.78;3.20;;;;;;;;;;5080363;28;20259;-78
2022/06/30 13:32:14;;;;;;;4.18;2.97;;;;;;;;;;5092864;28;20226;-75
2022/06/30 13:34:41;;;;;;;2.80;2.50;;;;;;;;;;5091082;28;20221;-76
2022/06/30 13:37:09;;;;;;;5.40;3.17;;;;;;;;;;5076848;28;20250;-75
2022/06/30 13:39:36;;;;;;;5.63;2.65;;;;;;;;;;5084287;28;20235;-78
2022/06/30 13:42:04;;;;;;;2.67;2.42;;;;;;;;;;5095835;28;20224;-76
2022/06/30 13:44:31;;;;;;;3.85;2.80;;;;;;;;;;5085874;28;20200;-77
2022/06/30 13:46:59;;;;;;;3.15;2.72;;;;;;;;;;5083237;28;20232;-77
2022/06/30 13:49:26;;;;;;;4.57;2.60;;;;;;;;;;5082898;28;20201;-76
2022/06/30 13:51:54;;;;;;;3.28;2.72;;;;;;;;;;5063654;28;20239;-78
2022/06/30 13:54:21;;;;;;;5.10;2.90;;;;;;;;;;5092539;28;20230;-76
2022/06/30 13:56:51;;;;;;;4.93;2.92;;;;;;;;;;5090717;28;20200;-76
2022/06/30 13:59:18;;;;;;;4.00;2.85;;;;;;;;;;5090736;28;20211;-76
2022/06/30 14:01:46;;;;;;;5.40;2.75;;;;;;;;;;5072584;28;20263;-77
2022/06/30 14:04:16;;;;;;;3.35;2.75;;;;;;;;;;5061941;28;20258;-76
2022/06/30 14:06:46;;;;;;;5.82;3.10;;;;;;;;;;5080744;28;20295;-75
2022/06/30 14:09:13;;;;;;;3.90;2.88;;;;;;;;;;5079280;28;20204;-78
2022/06/30 14:11:40;;;;;;;5.95;3.30;;;;;;;;;;5080996;28;20530;-77
2022/06/30 14:14:08;;;;;;;4.72;2.78;;;;;;;;;;5079696;28;20700;-77
2022/06/30 14:16:35;;;;;;;7.13;3.05;;;;;;;;;;5070485;28;20736;-78
2022/06/30 14:19:02;;;;;;;3.70;3.00;;;;;;;;;;5087981;28;20607;-79
2022/06/30 14:21:31;;;;;;;3.72;2.90;;;;;;;;;;5082402;28;20315;-78
2022/06/30 14:23:58;;;;;;;3.92;2.70;;;;;;;;;;5082360;28;20251;-76
2022/06/30 14:26:26;;;;;;;4.03;3.22;;;;;;;;;;5079404;28;20292;-80
2022/06/30 14:28:53;;;;;;;4.15;3.10;;;;;;;;;;5085783;28;20240;-77
2022/06/30 14:31:20;;;;;;;4.22;3.00;;;;;;;;;;5083326;28;20251;-78
2022/06/30 14:33:48;;;;;;;3.35;2.60;;;;;;;;;;5085749;28;20316;-77
2022/06/30 14:36:15;;;;;;;5.70;2.80;;;;;;;;;;5086952;28;20702;-74
2022/06/30 14:38:42;;;;;;;4.05;2.70;;;;;;;;;;5082582;28;20333;-77
2022/06/30 14:41:10;;;;;;;4.80;2.95;;;;;;;;;;5088373;28;20230;-75
2022/06/30 14:43:37;;;;;;;3.83;2.67;;;;;;;;;;5089083;28;20288;-76
2022/06/30 14:46:05;;;;;;;5.15;2.58;;;;;;;;;;5096549;28;20282;-76
2022/06/30 14:48:33;;;;;;;3.88;2.72;;;;;;;;;;5091129;28;20204;-77
2022/06/30 14:51:20;;;;;;;4.10;2.70;;;;;;;;;;5091178;28;20243;-78
2022/06/30 14:53:47;;;;;;;3.20;2.47;;;;;;;;;;5087875;28;20239;-78
2022/06/30 14:56:14;;;;;;;2.92;2.60;;;;;;;;;;5088257;28;20740;-77
2022/06/30 14:58:42;;;;;;;4.00;2.75;;;;;;;;;;5079042;28;20229;-78
2022/06/30 15:01:09;;;;;;;4.65;2.92;;;;;;;;;;5084549;28;20269;-78
2022/06/30 15:03:37;;;;;;;5.72;3.05;;;;;;;;;;5089091;28;20331;-78